sensor_id;sensor_type;location;lat;lon;timestamp;P1;durP1;ratioP1;P2;durP2;ratioP2
37305;SDS011;23193;42.656;21.170;2023-11-21T00:01:18;259.70;;;117.30;;
37305;SDS011;23193;42.656;21.170;2023-11-21T00:03:45;215.05;;;101.47;;
37305;SDS011;23193;42.656;21.170;2023-11-21T00:06:13;213.88;;;101.22;;
37305;SDS011;23193;42.656;21.170;2023-11-21T00:08:40;207.95;;;98.05;;
37305;SDS011;23193;42.656;21.170;2023-11-21T00:11:07;178.13;;;89.18;;
37305;SDS011;23193;42.656;21.170;2023-11-21T00:13:34;187.35;;;87.65;;
37305;SDS011;23193;42.656;21.170;2023-11-21T00:16:03;153.68;;;78.55;;
37305;SDS011;23193;42.656;21.170;2023-11-21T00:18:31;202.10;;;98.13;;
37305;SDS011;23193;42.656;21.170;2023-11-21T00:20:58;155.23;;;78.50;;
37305;SDS011;23193;42.656;21.170;2023-11-21T00:23:26;156.73;;;75.18;;
37305;SDS011;23193;42.656;21.170;2023-11-21T00:25:53;158.40;;;72.35;;
37305;SDS011;23193;42.656;21.170;2023-11-21T00:28:20;133.45;;;66.88;;
37305;SDS011;23193;42.656;21.170;2023-11-21T00:30:47;128.13;;;60.22;;
37305;SDS011;23193;42.656;21.170;2023-11-21T00:33:14;165.07;;;82.70;;
37305;SDS011;23193;42.656;21.170;2023-11-21T00:35:41;197.40;;;93.72;;
37305;SDS011;23193;42.656;21.170;2023-11-21T00:38:09;175.00;;;87.68;;
37305;SDS011;23193;42.656;21.170;2023-11-21T00:40:36;159.15;;;78.07;;
37305;SDS011;23193;42.656;21.170;2023-11-21T00:43:04;141.68;;;72.30;;
37305;SDS011;23193;42.656;21.170;2023-11-21T00:45:32;179.63;;;84.03;;
37305;SDS011;23193;42.656;21.170;2023-11-21T00:47:59;150.00;;;76.07;;
37305;SDS011;23193;42.656;21.170;2023-11-21T00:50:26;130.27;;;63.17;;
37305;SDS011;23193;42.656;21.170;2023-11-21T00:52:55;81.72;;;43.67;;
37305;SDS011;23193;42.656;21.170;2023-11-21T00:55:22;106.22;;;49.40;;
37305;SDS011;23193;42.656;21.170;2023-11-21T00:57:50;78.50;;;39.70;;
37305;SDS011;23193;42.656;21.170;2023-11-21T01:00:17;75.60;;;37.83;;
37305;SDS011;23193;42.656;21.170;2023-11-21T01:02:44;77.55;;;37.55;;
37305;SDS011;23193;42.656;21.170;2023-11-21T01:05:11;76.43;;;32.75;;
37305;SDS011;23193;42.656;21.170;2023-11-21T01:07:39;77.68;;;35.63;;
37305;SDS011;23193;42.656;21.170;2023-11-21T01:10:06;63.72;;;31.13;;
37305;SDS011;23193;42.656;21.170;2023-11-21T01:12:35;63.75;;;33.00;;
37305;SDS011;23193;42.656;21.170;2023-11-21T01:15:04;72.15;;;34.28;;
37305;SDS011;23193;42.656;21.170;2023-11-21T01:17:34;60.92;;;30.40;;
37305;SDS011;23193;42.656;21.170;2023-11-21T01:20:02;76.43;;;34.97;;
37305;SDS011;23193;42.656;21.170;2023-11-21T01:22:30;74.40;;;32.28;;
37305;SDS011;23193;42.656;21.170;2023-11-21T01:24:57;80.95;;;36.92;;
37305;SDS011;23193;42.656;21.170;2023-11-21T01:27:25;85.75;;;40.42;;
37305;SDS011;23193;42.656;21.170;2023-11-21T01:29:52;77.95;;;38.25;;
37305;SDS011;23193;42.656;21.170;2023-11-21T01:32:21;63.53;;;30.20;;
37305;SDS011;23193;42.656;21.170;2023-11-21T01:34:49;58.60;;;29.45;;
37305;SDS011;23193;42.656;21.170;2023-11-21T01:37:17;47.53;;;23.25;;
37305;SDS011;23193;42.656;21.170;2023-11-21T01:39:44;69.53;;;29.08;;
37305;SDS011;23193;42.656;21.170;2023-11-21T01:42:11;65.10;;;30.77;;
37305;SDS011;23193;42.656;21.170;2023-11-21T01:44:40;44.83;;;21.77;;
37305;SDS011;23193;42.656;21.170;2023-11-21T01:47:07;57.30;;;30.48;;
37305;SDS011;23193;42.656;21.170;2023-11-21T01:49:35;67.45;;;35.97;;
37305;SDS011;23193;42.656;21.170;2023-11-21T01:52:02;54.85;;;30.45;;
37305;SDS011;23193;42.656;21.170;2023-11-21T01:54:31;46.70;;;25.65;;
37305;SDS011;23193;42.656;21.170;2023-11-21T01:56:58;36.70;;;20.77;;
37305;SDS011;23193;42.656;21.170;2023-11-21T01:59:33;46.78;;;24.00;;
37305;SDS011;23193;42.656;21.170;2023-11-21T02:02:01;41.50;;;22.45;;
37305;SDS011;23193;42.656;21.170;2023-11-21T02:04:28;41.10;;;22.58;;
37305;SDS011;23193;42.656;21.170;2023-11-21T02:06:56;40.55;;;19.20;;
37305;SDS011;23193;42.656;21.170;2023-11-21T02:09:27;50.58;;;23.48;;
37305;SDS011;23193;42.656;21.170;2023-11-21T02:11:54;48.17;;;20.42;;
37305;SDS011;23193;42.656;21.170;2023-11-21T02:14:25;40.28;;;19.00;;
37305;SDS011;23193;42.656;21.170;2023-11-21T02:16:53;36.38;;;19.25;;
37305;SDS011;23193;42.656;21.170;2023-11-21T02:19:21;34.95;;;18.30;;
37305;SDS011;23193;42.656;21.170;2023-11-21T02:21:57;38.58;;;19.88;;
37305;SDS011;23193;42.656;21.170;2023-11-21T02:24:30;31.15;;;17.08;;
37305;SDS011;23193;42.656;21.170;2023-11-21T02:26:58;36.03;;;18.85;;
37305;SDS011;23193;42.656;21.170;2023-11-21T02:29:25;36.85;;;18.38;;
37305;SDS011;23193;42.656;21.170;2023-11-21T02:31:55;47.88;;;20.25;;
37305;SDS011;23193;42.656;21.170;2023-11-21T02:34:22;32.13;;;17.42;;
37305;SDS011;23193;42.656;21.170;2023-11-21T02:36:49;42.00;;;19.23;;
37305;SDS011;23193;42.656;21.170;2023-11-21T02:39:17;32.60;;;18.83;;
37305;SDS011;23193;42.656;21.170;2023-11-21T02:41:44;34.88;;;18.10;;
37305;SDS011;23193;42.656;21.170;2023-11-21T02:44:11;35.20;;;17.73;;
37305;SDS011;23193;42.656;21.170;2023-11-21T02:46:38;34.60;;;18.05;;
37305;SDS011;23193;42.656;21.170;2023-11-21T02:49:06;30.00;;;17.80;;
37305;SDS011;23193;42.656;21.170;2023-11-21T02:51:33;42.03;;;18.88;;
37305;SDS011;23193;42.656;21.170;2023-11-21T02:54:00;50.90;;;24.80;;
37305;SDS011;23193;42.656;21.170;2023-11-21T02:56:29;64.05;;;28.05;;
37305;SDS011;23193;42.656;21.170;2023-11-21T02:58:56;40.83;;;21.83;;
37305;SDS011;23193;42.656;21.170;2023-11-21T03:01:24;34.75;;;19.73;;
37305;SDS011;23193;42.656;21.170;2023-11-21T03:03:51;32.90;;;20.13;;
37305;SDS011;23193;42.656;21.170;2023-11-21T03:06:19;90.22;;;35.10;;
37305;SDS011;23193;42.656;21.170;2023-11-21T03:08:46;81.75;;;34.97;;
37305;SDS011;23193;42.656;21.170;2023-11-21T03:11:13;84.15;;;37.45;;
37305;SDS011;23193;42.656;21.170;2023-11-21T03:13:41;70.00;;;30.17;;
37305;SDS011;23193;42.656;21.170;2023-11-21T03:16:09;72.15;;;31.05;;
37305;SDS011;23193;42.656;21.170;2023-11-21T03:18:40;57.55;;;27.00;;
37305;SDS011;23193;42.656;21.170;2023-11-21T03:21:07;63.05;;;27.73;;
37305;SDS011;23193;42.656;21.170;2023-11-21T03:23:35;49.15;;;22.42;;
37305;SDS011;23193;42.656;21.170;2023-11-21T03:26:03;48.17;;;22.90;;
37305;SDS011;23193;42.656;21.170;2023-11-21T03:28:30;42.72;;;20.13;;
37305;SDS011;23193;42.656;21.170;2023-11-21T03:30:57;38.35;;;21.77;;
37305;SDS011;23193;42.656;21.170;2023-11-21T03:33:24;57.03;;;23.17;;
37305;SDS011;23193;42.656;21.170;2023-11-21T03:35:51;30.17;;;16.85;;
37305;SDS011;23193;42.656;21.170;2023-11-21T03:38:19;39.03;;;21.42;;
37305;SDS011;23193;42.656;21.170;2023-11-21T03:40:47;37.20;;;19.75;;
37305;SDS011;23193;42.656;21.170;2023-11-21T03:43:14;34.50;;;18.38;;
37305;SDS011;23193;42.656;21.170;2023-11-21T03:45:41;49.90;;;21.55;;
37305;SDS011;23193;42.656;21.170;2023-11-21T03:48:09;42.25;;;19.25;;
37305;SDS011;23193;42.656;21.170;2023-11-21T03:50:38;51.05;;;24.38;;
37305;SDS011;23193;42.656;21.170;2023-11-21T03:53:05;60.53;;;25.08;;
37305;SDS011;23193;42.656;21.170;2023-11-21T03:55:33;41.55;;;21.35;;
37305;SDS011;23193;42.656;21.170;2023-11-21T03:58:00;53.45;;;25.65;;
37305;SDS011;23193;42.656;21.170;2023-11-21T04:00:27;46.05;;;22.67;;
37305;SDS011;23193;42.656;21.170;2023-11-21T04:02:54;53.55;;;26.40;;
37305;SDS011;23193;42.656;21.170;2023-11-21T04:05:22;53.97;;;23.77;;
37305;SDS011;23193;42.656;21.170;2023-11-21T04:07:50;33.80;;;18.60;;
37305;SDS011;23193;42.656;21.170;2023-11-21T04:10:20;35.45;;;19.65;;
37305;SDS011;23193;42.656;21.170;2023-11-21T04:12:47;33.42;;;17.73;;
37305;SDS011;23193;42.656;21.170;2023-11-21T04:15:15;42.03;;;18.77;;
37305;SDS011;23193;42.656;21.170;2023-11-21T04:17:42;35.53;;;19.75;;
37305;SDS011;23193;42.656;21.170;2023-11-21T04:20:09;44.83;;;19.85;;
37305;SDS011;23193;42.656;21.170;2023-11-21T04:22:40;42.15;;;21.02;;
37305;SDS011;23193;42.656;21.170;2023-11-21T04:25:08;40.67;;;20.48;;
37305;SDS011;23193;42.656;21.170;2023-11-21T04:27:36;40.88;;;20.27;;
37305;SDS011;23193;42.656;21.170;2023-11-21T04:30:04;52.47;;;24.73;;
37305;SDS011;23193;42.656;21.170;2023-11-21T04:32:32;50.72;;;25.17;;
37305;SDS011;23193;42.656;21.170;2023-11-21T04:34:59;60.83;;;26.75;;
37305;SDS011;23193;42.656;21.170;2023-11-21T04:37:26;61.45;;;26.25;;
37305;SDS011;23193;42.656;21.170;2023-11-21T04:39:53;58.88;;;26.98;;
37305;SDS011;23193;42.656;21.170;2023-11-21T04:42:20;56.63;;;26.98;;
37305;SDS011;23193;42.656;21.170;2023-11-21T04:44:48;47.17;;;25.15;;
37305;SDS011;23193;42.656;21.170;2023-11-21T04:47:15;51.00;;;24.90;;
37305;SDS011;23193;42.656;21.170;2023-11-21T04:49:42;52.33;;;28.30;;
37305;SDS011;23193;42.656;21.170;2023-11-21T04:52:14;53.33;;;27.65;;
37305;SDS011;23193;42.656;21.170;2023-11-21T04:54:41;50.15;;;27.80;;
37305;SDS011;23193;42.656;21.170;2023-11-21T04:57:08;51.83;;;28.05;;
37305;SDS011;23193;42.656;21.170;2023-11-21T04:59:35;53.67;;;28.50;;
37305;SDS011;23193;42.656;21.170;2023-11-21T05:02:02;54.50;;;28.85;;
37305;SDS011;23193;42.656;21.170;2023-11-21T05:04:29;51.35;;;28.38;;
37305;SDS011;23193;42.656;21.170;2023-11-21T05:06:58;54.25;;;28.70;;
37305;SDS011;23193;42.656;21.170;2023-11-21T05:09:25;55.05;;;29.95;;
37305;SDS011;23193;42.656;21.170;2023-11-21T05:11:52;53.95;;;28.70;;
37305;SDS011;23193;42.656;21.170;2023-11-21T05:14:20;62.95;;;30.02;;
37305;SDS011;23193;42.656;21.170;2023-11-21T05:16:47;57.40;;;30.40;;
37305;SDS011;23193;42.656;21.170;2023-11-21T05:19:14;58.13;;;29.58;;
37305;SDS011;23193;42.656;21.170;2023-11-21T05:21:42;63.20;;;30.33;;
37305;SDS011;23193;42.656;21.170;2023-11-21T05:24:09;59.30;;;30.35;;
37305;SDS011;23193;42.656;21.170;2023-11-21T05:26:36;61.42;;;31.05;;
37305;SDS011;23193;42.656;21.170;2023-11-21T05:29:03;51.92;;;30.48;;
37305;SDS011;23193;42.656;21.170;2023-11-21T05:31:30;58.25;;;31.65;;
37305;SDS011;23193;42.656;21.170;2023-11-21T05:33:57;57.97;;;29.60;;
37305;SDS011;23193;42.656;21.170;2023-11-21T05:36:25;61.45;;;31.95;;
37305;SDS011;23193;42.656;21.170;2023-11-21T05:38:52;57.30;;;29.88;;
37305;SDS011;23193;42.656;21.170;2023-11-21T05:41:19;55.30;;;30.10;;
37305;SDS011;23193;42.656;21.170;2023-11-21T05:43:46;52.83;;;28.90;;
37305;SDS011;23193;42.656;21.170;2023-11-21T05:46:13;52.72;;;29.17;;
37305;SDS011;23193;42.656;21.170;2023-11-21T05:48:40;58.00;;;32.00;;
37305;SDS011;23193;42.656;21.170;2023-11-21T05:51:07;50.70;;;29.17;;
37305;SDS011;23193;42.656;21.170;2023-11-21T05:53:35;51.33;;;30.00;;
37305;SDS011;23193;42.656;21.170;2023-11-21T05:56:02;60.35;;;30.60;;
37305;SDS011;23193;42.656;21.170;2023-11-21T05:58:31;57.38;;;30.35;;
37305;SDS011;23193;42.656;21.170;2023-11-21T06:00:59;65.97;;;35.58;;
37305;SDS011;23193;42.656;21.170;2023-11-21T06:03:27;58.83;;;34.05;;
37305;SDS011;23193;42.656;21.170;2023-11-21T06:05:55;71.10;;;37.75;;
37305;SDS011;23193;42.656;21.170;2023-11-21T06:08:22;73.00;;;36.65;;
37305;SDS011;23193;42.656;21.170;2023-11-21T06:10:49;67.40;;;34.67;;
37305;SDS011;23193;42.656;21.170;2023-11-21T06:13:16;56.33;;;31.30;;
37305;SDS011;23193;42.656;21.170;2023-11-21T06:15:46;56.13;;;31.10;;
37305;SDS011;23193;42.656;21.170;2023-11-21T06:18:13;76.88;;;38.53;;
37305;SDS011;23193;42.656;21.170;2023-11-21T06:20:41;68.70;;;35.08;;
37305;SDS011;23193;42.656;21.170;2023-11-21T06:23:08;66.72;;;33.25;;
37305;SDS011;23193;42.656;21.170;2023-11-21T06:25:36;64.10;;;32.92;;
37305;SDS011;23193;42.656;21.170;2023-11-21T06:28:04;73.03;;;31.92;;
37305;SDS011;23193;42.656;21.170;2023-11-21T06:30:33;64.47;;;33.00;;
37305;SDS011;23193;42.656;21.170;2023-11-21T06:33:00;69.10;;;32.45;;
37305;SDS011;23193;42.656;21.170;2023-11-21T06:35:28;73.22;;;35.13;;
37305;SDS011;23193;42.656;21.170;2023-11-21T06:37:57;80.68;;;37.55;;
37305;SDS011;23193;42.656;21.170;2023-11-21T06:40:24;92.70;;;40.22;;
37305;SDS011;23193;42.656;21.170;2023-11-21T06:42:51;71.75;;;34.75;;
37305;SDS011;23193;42.656;21.170;2023-11-21T06:45:18;63.88;;;33.38;;
37305;SDS011;23193;42.656;21.170;2023-11-21T06:47:47;60.90;;;30.70;;
37305;SDS011;23193;42.656;21.170;2023-11-21T06:50:15;61.53;;;31.10;;
37305;SDS011;23193;42.656;21.170;2023-11-21T06:52:42;67.25;;;32.45;;
37305;SDS011;23193;42.656;21.170;2023-11-21T06:55:10;84.00;;;35.05;;
37305;SDS011;23193;42.656;21.170;2023-11-21T06:57:37;83.35;;;40.85;;
37305;SDS011;23193;42.656;21.170;2023-11-21T07:00:05;84.38;;;40.40;;
37305;SDS011;23193;42.656;21.170;2023-11-21T07:02:36;74.78;;;40.78;;
37305;SDS011;23193;42.656;21.170;2023-11-21T07:05:03;92.90;;;41.42;;
37305;SDS011;23193;42.656;21.170;2023-11-21T07:07:30;86.40;;;43.88;;
37305;SDS011;23193;42.656;21.170;2023-11-21T07:09:58;90.97;;;43.78;;
37305;SDS011;23193;42.656;21.170;2023-11-21T07:12:30;91.85;;;43.47;;
37305;SDS011;23193;42.656;21.170;2023-11-21T07:14:58;90.28;;;44.20;;
37305;SDS011;23193;42.656;21.170;2023-11-21T07:17:25;78.50;;;40.63;;
37305;SDS011;23193;42.656;21.170;2023-11-21T07:19:52;77.07;;;41.92;;
37305;SDS011;23193;42.656;21.170;2023-11-21T07:22:19;84.13;;;42.17;;
37305;SDS011;23193;42.656;21.170;2023-11-21T07:24:49;82.30;;;43.00;;
37305;SDS011;23193;42.656;21.170;2023-11-21T07:27:19;107.90;;;47.22;;
37305;SDS011;23193;42.656;21.170;2023-11-21T07:29:46;91.68;;;48.88;;
37305;SDS011;23193;42.656;21.170;2023-11-21T07:32:13;111.78;;;53.83;;
37305;SDS011;23193;42.656;21.170;2023-11-21T07:34:41;86.53;;;43.40;;
37305;SDS011;23193;42.656;21.170;2023-11-21T07:37:08;94.25;;;46.20;;
37305;SDS011;23193;42.656;21.170;2023-11-21T07:39:39;103.68;;;47.35;;
37305;SDS011;23193;42.656;21.170;2023-11-21T07:42:09;102.82;;;46.30;;
37305;SDS011;23193;42.656;21.170;2023-11-21T07:44:37;97.60;;;46.22;;
37305;SDS011;23193;42.656;21.170;2023-11-21T07:47:05;98.88;;;47.10;;
37305;SDS011;23193;42.656;21.170;2023-11-21T07:49:33;104.75;;;53.45;;
37305;SDS011;23193;42.656;21.170;2023-11-21T07:52:00;109.80;;;53.63;;
37305;SDS011;23193;42.656;21.170;2023-11-21T07:54:27;109.00;;;47.20;;
37305;SDS011;23193;42.656;21.170;2023-11-21T07:56:54;120.65;;;51.38;;
37305;SDS011;23193;42.656;21.170;2023-11-21T07:59:22;151.45;;;66.30;;
37305;SDS011;23193;42.656;21.170;2023-11-21T08:01:49;195.18;;;79.45;;
37305;SDS011;23193;42.656;21.170;2023-11-21T08:04:16;183.07;;;78.38;;
37305;SDS011;23193;42.656;21.170;2023-11-21T08:06:44;236.07;;;98.95;;
37305;SDS011;23193;42.656;21.170;2023-11-21T08:09:11;285.35;;;115.78;;
37305;SDS011;23193;42.656;21.170;2023-11-21T08:11:39;277.75;;;115.47;;
37305;SDS011;23193;42.656;21.170;2023-11-21T08:14:06;287.45;;;118.32;;
37305;SDS011;23193;42.656;21.170;2023-11-21T08:16:33;283.95;;;113.03;;
37305;SDS011;23193;42.656;21.170;2023-11-21T08:19:01;244.15;;;100.10;;
37305;SDS011;23193;42.656;21.170;2023-11-21T08:21:29;211.00;;;83.20;;
37305;SDS011;23193;42.656;21.170;2023-11-21T08:23:56;199.98;;;82.70;;
37305;SDS011;23193;42.656;21.170;2023-11-21T08:26:23;204.43;;;81.72;;
37305;SDS011;23193;42.656;21.170;2023-11-21T08:28:50;202.02;;;79.53;;
37305;SDS011;23193;42.656;21.170;2023-11-21T08:31:26;194.00;;;74.93;;
37305;SDS011;23193;42.656;21.170;2023-11-21T08:33:54;147.00;;;65.35;;
37305;SDS011;23193;42.656;21.170;2023-11-21T08:36:22;131.55;;;58.47;;
37305;SDS011;23193;42.656;21.170;2023-11-21T08:38:52;117.20;;;49.35;;
37305;SDS011;23193;42.656;21.170;2023-11-21T08:41:20;111.35;;;51.42;;
37305;SDS011;23193;42.656;21.170;2023-11-21T08:43:50;114.35;;;51.92;;
37305;SDS011;23193;42.656;21.170;2023-11-21T08:46:18;120.28;;;52.75;;
37305;SDS011;23193;42.656;21.170;2023-11-21T08:48:46;105.28;;;51.13;;
37305;SDS011;23193;42.656;21.170;2023-11-21T08:51:13;114.57;;;47.03;;
37305;SDS011;23193;42.656;21.170;2023-11-21T08:53:43;88.88;;;44.67;;
37305;SDS011;23193;42.656;21.170;2023-11-21T08:56:14;95.32;;;45.53;;
37305;SDS011;23193;42.656;21.170;2023-11-21T08:58:41;103.15;;;47.15;;
37305;SDS011;23193;42.656;21.170;2023-11-21T09:01:08;111.10;;;51.60;;
37305;SDS011;23193;42.656;21.170;2023-11-21T09:03:35;117.22;;;55.63;;
37305;SDS011;23193;42.656;21.170;2023-11-21T09:06:04;106.68;;;55.40;;
37305;SDS011;23193;42.656;21.170;2023-11-21T09:08:32;112.75;;;52.85;;
37305;SDS011;23193;42.656;21.170;2023-11-21T09:10:59;95.70;;;52.10;;
37305;SDS011;23193;42.656;21.170;2023-11-21T09:13:26;93.47;;;48.95;;
37305;SDS011;23193;42.656;21.170;2023-11-21T09:15:53;98.43;;;51.22;;
37305;SDS011;23193;42.656;21.170;2023-11-21T09:18:21;95.88;;;48.80;;
37305;SDS011;23193;42.656;21.170;2023-11-21T09:20:48;92.28;;;47.22;;
37305;SDS011;23193;42.656;21.170;2023-11-21T09:23:15;103.60;;;47.30;;
37305;SDS011;23193;42.656;21.170;2023-11-21T09:25:43;92.00;;;46.25;;
37305;SDS011;23193;42.656;21.170;2023-11-21T09:28:13;91.28;;;45.35;;
37305;SDS011;23193;42.656;21.170;2023-11-21T09:30:40;90.18;;;46.60;;
37305;SDS011;23193;42.656;21.170;2023-11-21T09:33:07;98.45;;;46.35;;
37305;SDS011;23193;42.656;21.170;2023-11-21T09:35:38;94.68;;;46.97;;
37305;SDS011;23193;42.656;21.170;2023-11-21T09:38:05;94.55;;;47.53;;
37305;SDS011;23193;42.656;21.170;2023-11-21T09:40:38;87.63;;;47.78;;
37305;SDS011;23193;42.656;21.170;2023-11-21T09:43:11;94.07;;;48.38;;
37305;SDS011;23193;42.656;21.170;2023-11-21T09:45:46;102.28;;;52.47;;
37305;SDS011;23193;42.656;21.170;2023-11-21T09:48:14;80.22;;;44.67;;
37305;SDS011;23193;42.656;21.170;2023-11-21T09:50:43;95.20;;;50.70;;
37305;SDS011;23193;42.656;21.170;2023-11-21T09:53:17;87.55;;;49.25;;
37305;SDS011;23193;42.656;21.170;2023-11-21T09:55:46;107.20;;;52.20;;
37305;SDS011;23193;42.656;21.170;2023-11-21T09:58:14;100.05;;;52.88;;
37305;SDS011;23193;42.656;21.170;2023-11-21T10:00:42;103.95;;;55.65;;
37305;SDS011;23193;42.656;21.170;2023-11-21T10:03:09;101.13;;;54.80;;
37305;SDS011;23193;42.656;21.170;2023-11-21T10:05:37;123.60;;;59.35;;
37305;SDS011;23193;42.656;21.170;2023-11-21T10:08:07;125.60;;;67.63;;
37305;SDS011;23193;42.656;21.170;2023-11-21T10:10:34;134.50;;;72.85;;
37305;SDS011;23193;42.656;21.170;2023-11-21T10:13:06;150.63;;;85.57;;
37305;SDS011;23193;42.656;21.170;2023-11-21T10:15:34;157.93;;;87.38;;
37305;SDS011;23193;42.656;21.170;2023-11-21T10:18:06;148.75;;;87.22;;
37305;SDS011;23193;42.656;21.170;2023-11-21T10:20:33;165.30;;;89.22;;
37305;SDS011;23193;42.656;21.170;2023-11-21T10:23:00;149.77;;;88.35;;
37305;SDS011;23193;42.656;21.170;2023-11-21T10:25:31;160.68;;;89.22;;
37305;SDS011;23193;42.656;21.170;2023-11-21T10:28:01;145.32;;;85.82;;
37305;SDS011;23193;42.656;21.170;2023-11-21T10:30:35;165.68;;;93.10;;
37305;SDS011;23193;42.656;21.170;2023-11-21T10:33:05;174.38;;;100.38;;
37305;SDS011;23193;42.656;21.170;2023-11-21T10:35:42;175.77;;;101.13;;
37305;SDS011;23193;42.656;21.170;2023-11-21T10:38:14;193.20;;;107.03;;
37305;SDS011;23193;42.656;21.170;2023-11-21T10:40:41;198.73;;;107.70;;
37305;SDS011;23193;42.656;21.170;2023-11-21T10:43:09;211.68;;;118.53;;
37305;SDS011;23193;42.656;21.170;2023-11-21T10:45:37;194.55;;;112.55;;
37305;SDS011;23193;42.656;21.170;2023-11-21T10:48:07;185.55;;;105.97;;
37305;SDS011;23193;42.656;21.170;2023-11-21T10:50:35;162.20;;;92.60;;
37305;SDS011;23193;42.656;21.170;2023-11-21T10:53:05;153.85;;;85.13;;
37305;SDS011;23193;42.656;21.170;2023-11-21T10:55:33;129.60;;;78.60;;
37305;SDS011;23193;42.656;21.170;2023-11-21T10:58:01;132.30;;;76.38;;
37305;SDS011;23193;42.656;21.170;2023-11-21T11:00:29;133.88;;;75.18;;
37305;SDS011;23193;42.656;21.170;2023-11-21T11:02:56;173.77;;;94.93;;
37305;SDS011;23193;42.656;21.170;2023-11-21T11:05:31;119.82;;;74.13;;
37305;SDS011;23193;42.656;21.170;2023-11-21T11:08:04;127.93;;;69.10;;
37305;SDS011;23193;42.656;21.170;2023-11-21T11:10:31;167.13;;;96.57;;
37305;SDS011;23193;42.656;21.170;2023-11-21T11:12:59;176.75;;;97.57;;
37305;SDS011;23193;42.656;21.170;2023-11-21T11:15:26;160.18;;;91.43;;
37305;SDS011;23193;42.656;21.170;2023-11-21T11:17:54;221.15;;;127.15;;
37305;SDS011;23193;42.656;21.170;2023-11-21T11:20:33;188.15;;;113.28;;
37305;SDS011;23193;42.656;21.170;2023-11-21T11:28:19;117.90;;;68.18;;
37305;SDS011;23193;42.656;21.170;2023-11-21T11:31:00;114.60;;;68.53;;
37305;SDS011;23193;42.656;21.170;2023-11-21T11:36:31;125.63;;;66.93;;
37305;SDS011;23193;42.656;21.170;2023-11-21T11:39:00;101.10;;;58.50;;
37305;SDS011;23193;42.656;21.170;2023-11-21T11:41:30;96.05;;;54.05;;
37305;SDS011;23193;42.656;21.170;2023-11-21T11:44:00;83.90;;;46.00;;
37305;SDS011;23193;42.656;21.170;2023-11-21T11:46:41;78.20;;;45.75;;
37305;SDS011;23193;42.656;21.170;2023-11-21T11:49:08;78.75;;;48.25;;
37305;SDS011;23193;42.656;21.170;2023-11-21T11:51:36;85.70;;;47.55;;
37305;SDS011;23193;42.656;21.170;2023-11-21T11:54:03;86.00;;;48.00;;
37305;SDS011;23193;42.656;21.170;2023-11-21T11:56:31;73.65;;;42.67;;
37305;SDS011;23193;42.656;21.170;2023-11-21T11:59:01;68.72;;;38.30;;
37305;SDS011;23193;42.656;21.170;2023-11-21T12:01:37;68.13;;;37.80;;
37305;SDS011;23193;42.656;21.170;2023-11-21T12:06:44;70.70;;;38.45;;
37305;SDS011;23193;42.656;21.170;2023-11-21T12:09:20;72.85;;;42.10;;
37305;SDS011;23193;42.656;21.170;2023-11-21T12:11:51;62.92;;;38.97;;
37305;SDS011;23193;42.656;21.170;2023-11-21T12:14:18;62.38;;;37.15;;
37305;SDS011;23193;42.656;21.170;2023-11-21T12:16:45;63.13;;;37.97;;
37305;SDS011;23193;42.656;21.170;2023-11-21T12:19:14;73.65;;;39.90;;
37305;SDS011;23193;42.656;21.170;2023-11-21T12:21:42;65.57;;;39.33;;
37305;SDS011;23193;42.656;21.170;2023-11-21T12:24:09;73.32;;;38.92;;
37305;SDS011;23193;42.656;21.170;2023-11-21T12:26:36;69.47;;;42.40;;
37305;SDS011;23193;42.656;21.170;2023-11-21T12:29:03;78.50;;;42.35;;
37305;SDS011;23193;42.656;21.170;2023-11-21T12:31:31;80.55;;;43.42;;
37305;SDS011;23193;42.656;21.170;2023-11-21T12:33:58;86.22;;;46.92;;
37305;SDS011;23193;42.656;21.170;2023-11-21T12:36:25;87.28;;;46.33;;
37305;SDS011;23193;42.656;21.170;2023-11-21T12:38:53;84.63;;;46.90;;
37305;SDS011;23193;42.656;21.170;2023-11-21T12:41:20;81.30;;;43.42;;
37305;SDS011;23193;42.656;21.170;2023-11-21T12:43:48;91.25;;;45.22;;
37305;SDS011;23193;42.656;21.170;2023-11-21T12:46:15;82.20;;;45.35;;
37305;SDS011;23193;42.656;21.170;2023-11-21T12:48:44;82.57;;;43.53;;
37305;SDS011;23193;42.656;21.170;2023-11-21T12:51:14;96.53;;;48.75;;
37305;SDS011;23193;42.656;21.170;2023-11-21T12:53:43;93.78;;;50.53;;
37305;SDS011;23193;42.656;21.170;2023-11-21T12:56:11;94.28;;;52.47;;
37305;SDS011;23193;42.656;21.170;2023-11-21T12:58:39;95.78;;;49.75;;
37305;SDS011;23193;42.656;21.170;2023-11-21T13:01:07;82.88;;;49.95;;
37305;SDS011;23193;42.656;21.170;2023-11-21T13:03:38;98.22;;;53.35;;
37305;SDS011;23193;42.656;21.170;2023-11-21T13:06:07;90.35;;;49.05;;
37305;SDS011;23193;42.656;21.170;2023-11-21T13:08:34;93.25;;;51.60;;
37305;SDS011;23193;42.656;21.170;2023-11-21T13:11:03;93.57;;;53.45;;
37305;SDS011;23193;42.656;21.170;2023-11-21T13:16:01;88.05;;;50.33;;
37305;SDS011;23193;42.656;21.170;2023-11-21T13:18:28;98.25;;;51.63;;
37305;SDS011;23193;42.656;21.170;2023-11-21T13:20:58;78.57;;;43.08;;
37305;SDS011;23193;42.656;21.170;2023-11-21T13:23:26;84.30;;;48.50;;
37305;SDS011;23193;42.656;21.170;2023-11-21T13:25:53;79.47;;;47.70;;
37305;SDS011;23193;42.656;21.170;2023-11-21T13:28:31;57.55;;;31.08;;
37305;SDS011;23193;42.656;21.170;2023-11-21T13:33:48;67.97;;;36.75;;
37305;SDS011;23193;42.656;21.170;2023-11-21T13:36:23;86.32;;;45.40;;
37305;SDS011;23193;42.656;21.170;2023-11-21T13:38:50;80.45;;;46.50;;
37305;SDS011;23193;42.656;21.170;2023-11-21T13:41:17;96.75;;;48.83;;
37305;SDS011;23193;42.656;21.170;2023-11-21T13:43:45;97.43;;;54.45;;
37305;SDS011;23193;42.656;21.170;2023-11-21T13:46:19;107.28;;;57.20;;
37305;SDS011;23193;42.656;21.170;2023-11-21T13:48:49;98.00;;;54.78;;
37305;SDS011;23193;42.656;21.170;2023-11-21T13:51:23;103.68;;;57.28;;
37305;SDS011;23193;42.656;21.170;2023-11-21T13:54:03;104.07;;;55.45;;
37305;SDS011;23193;42.656;21.170;2023-11-21T13:56:36;105.93;;;61.65;;
37305;SDS011;23193;42.656;21.170;2023-11-21T13:59:03;108.43;;;56.20;;
37305;SDS011;23193;42.656;21.170;2023-11-21T14:01:41;72.10;;;38.95;;
37305;SDS011;23193;42.656;21.170;2023-11-21T14:04:21;70.32;;;39.40;;
37305;SDS011;23193;42.656;21.170;2023-11-21T14:07:11;70.95;;;36.53;;
37305;SDS011;23193;42.656;21.170;2023-11-21T14:12:20;35.13;;;15.75;;
37305;SDS011;23193;42.656;21.170;2023-11-21T14:14:47;27.65;;;12.82;;
37305;SDS011;23193;42.656;21.170;2023-11-21T14:17:15;22.38;;;11.40;;
37305;SDS011;23193;42.656;21.170;2023-11-21T14:19:42;32.05;;;15.85;;
37305;SDS011;23193;42.656;21.170;2023-11-21T14:22:11;37.80;;;22.23;;
37305;SDS011;23193;42.656;21.170;2023-11-21T14:24:38;23.15;;;11.57;;
37305;SDS011;23193;42.656;21.170;2023-11-21T14:27:10;40.28;;;21.02;;
37305;SDS011;23193;42.656;21.170;2023-11-21T14:29:37;29.52;;;16.52;;